This is the latest recevied weather packets stored in our database for station/object IZ1UQG-N2. If no packets are shown the sender has not sent any weather packets the latest 10 day(s).
| Time | Temp. | Humidity | Pressure | Rain* | Wind** | Luminosity | Snow |
|---|---|---|---|---|---|---|---|
| 1777644669 | 19.44° C | 39% | 1023.4 hPa | 0 mm | - | 643 W/m² | - |
| 1777644628 | 19.44° C | 39% | 1023.4 hPa | 0 mm | - | 645 W/m² | - |
| 1777644568 | 19.44° C | 39% | 1023.4 hPa | 0 mm | - | 647 W/m² | - |
| 1777644519 | 19.44° C | 38% | 1023.7 hPa | 0 mm | - | 659 W/m² | - |
| 1777644508 | 19.44° C | 39% | 1023.5 hPa | 0 mm | - | 649 W/m² | - |
| 1777644487 | 19.44° C | 39% | 1023.5 hPa | 0 mm | - | 649 W/m² | - |
| 1777644447 | 19.44° C | 38% | 1023.5 hPa | 0 mm | - | 652 W/m² | - |
| 1777644387 | 19.44° C | 38% | 1023.6 hPa | 0 mm | - | 652 W/m² | - |
| 1777644338 | 18.89° C | 39% | 1023.6 hPa | 0 mm | - | 664 W/m² | - |
| 1777644327 | 19.44° C | 38% | 1023.5 hPa | 0 mm | - | 656 W/m² | - |
| 1777644308 | 19.44° C | 38% | 1023.5 hPa | 0 mm | - | 656 W/m² | - |
| 1777644278 | 18.89° C | 38% | 1023.7 hPa | 0 mm | - | 666 W/m² | - |
| 1777644268 | 19.44° C | 38% | 1023.7 hPa | 0 mm | - | 659 W/m² | - |
| 1777644208 | 18.89° C | 39% | 1023.6 hPa | 0 mm | - | 661 W/m² | - |
| 1777644148 | 18.89° C | 38% | 1023.7 hPa | 0 mm | - | 663 W/m² | - |
| 1777644127 | 18.89° C | 38% | 1023.7 hPa | 0 mm | - | 663 W/m² | - |
| 1777644087 | 18.89° C | 39% | 1023.6 hPa | 0 mm | - | 664 W/m² | - |
| 1777644027 | 18.89° C | 38% | 1023.7 hPa | 0 mm | - | 666 W/m² | - |
| 1777643967 | 18.89° C | 38% | 1023.7 hPa | 0 mm | - | 668 W/m² | - |
| 1777643946 | 18.89° C | 38% | 1023.6 hPa | 0 mm | - | 672 W/m² | - |
| 1777643908 | 18.89° C | 38% | 1023.6 hPa | 0 mm | - | 672 W/m² | - |
| 1777643848 | 18.89° C | 39% | 1023.6 hPa | 0 mm | - | 675 W/m² | - |
| 1777643838 | 19.44° C | 38% | 1023.8 hPa | 0 mm | - | 680 W/m² | - |
| 1777643788 | 18.89° C | 38% | 1023.7 hPa | 0 mm | - | 675 W/m² | - |
| 1777643768 | 18.89° C | 38% | 1023.7 hPa | 0 mm | - | 675 W/m² | - |
* Rain latest hour (hover to see other rain measurements)
** Current wind speed in m/s (hover to see current wind gust speed)